PWSweather.com
Personal Weather Stations
Station Observations
KMIEASTT1
Tawas Bay, East Tawas, MI 48730

Tawas BayEast Tawas, MI 48730

Lat: 44.28, Lon: -83.48

Elevation: 600

Station Type: Davis VantagePro

http://www.tawasbayweather.com

High Low Average
Temperature 75.7°F24.3°F 66.3°F19.1°F 71.5°F21.9°F
Dew Point 73.0°F22.8°F 65.1°F18.4°F 69.2°F20.7°F
Winds 16.0 mph S25.7 mph S Calm Calm 4.2 mph 6.8 mph
Wind Gusts 16.0 mph25.7 mph -- 6.6 mph10.6 mph
Humidity 97% 84% 92%
Pressure 30.16 in1021.30 in 29.96 in1014.60 in -
Precipitation 2.87 in72.90 in - -
Hour Temp Dew Point Humidity Winds Wind Gusts Pressure Precip Precip Rate Daily Precip Total
12:00 AM 72.4°F22.4°C 68.7°F20.4°C 88% 5.0 mph S8.0 kmh S 7.0 mph11.3 kmh 30.16 in1021.3 mb 0.00 in0.0 mm 0.00 in0.0 mm 0.00 in0.0 mm
12:15 AM 72.3°F22.4°C 68.9°F20.5°C 89% 6.0 mph S9.7 kmh S 8.0 mph12.9 kmh 30.16 in1021.3 mb 0.00 in0.0 mm 0.00 in0.0 mm 0.00 in0.0 mm
12:30 AM 72.2°F22.3°C 68.8°F20.4°C 89% 9.0 mph S14.5 kmh S 9.0 mph14.5 kmh 30.15 in1021.0 mb 0.00 in0.0 mm 0.00 in0.0 mm 0.00 in0.0 mm
12:45 AM 72.1°F22.3°C 68.7°F20.4°C 89% 7.0 mph S11.3 kmh S 9.0 mph14.5 kmh 30.15 in1021.0 mb 0.00 in0.0 mm 0.00 in0.0 mm 0.00 in0.0 mm
01:00 AM 72.1°F22.3°C 69.0°F20.6°C 90% 6.0 mph S9.7 kmh S 8.0 mph12.9 kmh 30.15 in1021.0 mb 0.00 in0.0 mm 0.00 in0.0 mm 0.00 in0.0 mm
01:15 AM 72.0°F22.2°C 68.9°F20.5°C 90% 7.0 mph SSW11.3 kmh SSW 8.0 mph12.9 kmh 30.15 in1021.0 mb 0.00 in0.0 mm 0.00 in0.0 mm 0.00 in0.0 mm
01:30 AM 71.9°F22.2°C 68.8°F20.4°C 90% 7.0 mph S11.3 kmh S 9.0 mph14.5 kmh 30.15 in1021.0 mb 0.00 in0.0 mm 0.00 in0.0 mm 0.00 in0.0 mm
01:45 AM 71.8°F22.1°C 68.7°F20.4°C 90% 3.0 mph S4.8 kmh S 8.0 mph12.9 kmh 30.15 in1021.0 mb 0.00 in0.0 mm 0.00 in0.0 mm 0.00 in0.0 mm
02:00 AM 70.3°F21.3°C 67.2°F19.6°C 90% 3.0 mph W4.8 kmh W 4.0 mph6.4 kmh 30.15 in1021.0 mb 0.00 in0.0 mm 0.00 in0.0 mm 0.00 in0.0 mm
02:15 AM 69.8°F21.0°C 67.7°F19.8°C 93% 2.0 mph WSW3.2 kmh WSW 5.0 mph8.0 kmh 30.15 in1021.0 mb 0.00 in0.0 mm 0.00 in0.0 mm 0.00 in0.0 mm
02:30 AM 70.2°F21.2°C 68.4°F20.2°C 94% 5.0 mph SW8.0 kmh SW 6.0 mph9.7 kmh 30.15 in1021.0 mb 0.00 in0.0 mm 0.00 in0.0 mm 0.00 in0.0 mm
02:45 AM 70.6°F21.4°C 68.5°F20.3°C 93% 6.0 mph SW9.7 kmh SW 7.0 mph11.3 kmh 30.15 in1021.0 mb 0.00 in0.0 mm 0.00 in0.0 mm 0.00 in0.0 mm
03:00 AM 70.6°F21.4°C 68.5°F20.3°C 93% 5.0 mph SW8.0 kmh SW 7.0 mph11.3 kmh 30.15 in1021.0 mb 0.00 in0.0 mm 0.00 in0.0 mm 0.00 in0.0 mm
03:15 AM 70.3°F21.3°C 68.5°F20.3°C 94% 6.0 mph SW9.7 kmh SW 7.0 mph11.3 kmh 30.14 in1020.7 mb 0.00 in0.0 mm 0.00 in0.0 mm 0.00 in0.0 mm
03:30 AM 69.8°F21.0°C 68.0°F20.0°C 94% 3.0 mph WSW4.8 kmh WSW 3.0 mph4.8 kmh 30.14 in1020.7 mb 0.00 in0.0 mm 0.00 in0.0 mm 0.00 in0.0 mm
03:45 AM 69.6°F20.9°C 68.1°F20.1°C 95% Calm Calm 4.0 mph6.4 kmh 30.14 in1020.7 mb 0.00 in0.0 mm 0.00 in0.0 mm 0.00 in0.0 mm
04:00 AM 70.1°F21.2°C 68.9°F20.5°C 96% 7.0 mph SSW11.3 kmh SSW 7.0 mph11.3 kmh 30.14 in1020.7 mb 0.00 in0.0 mm 0.00 in0.0 mm 0.00 in0.0 mm
04:15 AM 69.9°F21.1°C 68.4°F20.2°C 95% 3.0 mph WSW4.8 kmh WSW 6.0 mph9.7 kmh 30.14 in1020.7 mb 0.00 in0.0 mm 0.00 in0.0 mm 0.00 in0.0 mm
04:30 AM 68.8°F20.4°C 67.3°F19.6°C 95% Calm Calm 3.0 mph4.8 kmh 30.13 in1020.3 mb 0.00 in0.0 mm 0.00 in0.0 mm 0.00 in0.0 mm
04:45 AM 67.8°F19.9°C 66.3°F19.1°C 95% Calm Calm 2.0 mph3.2 kmh 30.13 in1020.3 mb 0.00 in0.0 mm 0.00 in0.0 mm 0.00 in0.0 mm
05:00 AM 67.3°F19.6°C 66.1°F18.9°C 96% Calm Calm 4.0 mph6.4 kmh 30.13 in1020.3 mb 0.00 in0.0 mm 0.00 in0.0 mm 0.00 in0.0 mm
05:15 AM 67.0°F19.4°C 65.8°F18.8°C 96% 2.0 mph WSW3.2 kmh WSW 3.0 mph4.8 kmh 30.13 in1020.3 mb 0.00 in0.0 mm 0.00 in0.0 mm 0.00 in0.0 mm
05:30 AM 66.4°F19.1°C 65.5°F18.6°C 97% Calm Calm 4.0 mph6.4 kmh 30.13 in1020.3 mb 0.00 in0.0 mm 0.00 in0.0 mm 0.00 in0.0 mm
05:45 AM 66.3°F19.1°C 65.4°F18.6°C 97% 5.0 mph WSW8.0 kmh WSW 6.0 mph9.7 kmh 30.12 in1020.0 mb 0.00 in0.0 mm 0.00 in0.0 mm 0.00 in0.0 mm
06:00 AM 66.4°F19.1°C 65.2°F18.4°C 96% 2.0 mph W3.2 kmh W 6.0 mph9.7 kmh 30.13 in1020.3 mb 0.00 in0.0 mm 0.00 in0.0 mm 0.00 in0.0 mm
06:15 AM 66.5°F19.2°C 65.3°F18.5°C 96% Calm Calm 3.0 mph4.8 kmh 30.12 in1020.0 mb 0.00 in0.0 mm 0.00 in0.0 mm 0.00 in0.0 mm
06:30 AM 66.3°F19.1°C 65.1°F18.4°C 96% 1.0 mph NW1.6 kmh NW 3.0 mph4.8 kmh 30.12 in1020.0 mb 0.00 in0.0 mm 0.00 in0.0 mm 0.00 in0.0 mm
06:45 AM 66.6°F19.2°C 65.4°F18.6°C 96% 3.0 mph WSW4.8 kmh WSW 4.0 mph6.4 kmh 30.11 in1019.6 mb 0.00 in0.0 mm 0.00 in0.0 mm 0.00 in0.0 mm
07:00 AM 66.5°F19.2°C 65.3°F18.5°C 96% Calm Calm 2.0 mph3.2 kmh 30.12 in1020.0 mb 0.00 in0.0 mm 0.00 in0.0 mm 0.00 in0.0 mm
07:15 AM 66.5°F19.2°C 65.3°F18.5°C 96% Calm Calm 4.0 mph6.4 kmh 30.11 in1019.6 mb 0.00 in0.0 mm 0.00 in0.0 mm 0.00 in0.0 mm
07:30 AM 66.9°F19.4°C 65.7°F18.7°C 96% 2.0 mph WSW3.2 kmh WSW 5.0 mph8.0 kmh 30.11 in1019.6 mb 0.00 in0.0 mm 0.00 in0.0 mm 0.00 in0.0 mm
07:45 AM 67.2°F19.6°C 66.0°F18.9°C 96% 4.0 mph WSW6.4 kmh WSW 5.0 mph8.0 kmh 30.11 in1019.6 mb 0.00 in0.0 mm 0.00 in0.0 mm 0.00 in0.0 mm
08:00 AM 67.2°F19.6°C 66.0°F18.9°C 96% 3.0 mph WSW4.8 kmh WSW 6.0 mph9.7 kmh 30.12 in1020.0 mb 0.00 in0.0 mm 0.00 in0.0 mm 0.00 in0.0 mm
08:15 AM 67.4°F19.7°C 65.9°F18.8°C 95% 4.0 mph WSW6.4 kmh WSW 5.0 mph8.0 kmh 30.12 in1020.0 mb 0.00 in0.0 mm 0.00 in0.0 mm 0.00 in0.0 mm
08:30 AM 68.1°F20.1°C 66.6°F19.2°C 95% 3.0 mph WSW4.8 kmh WSW 5.0 mph8.0 kmh 30.12 in1020.0 mb 0.00 in0.0 mm 0.00 in0.0 mm 0.00 in0.0 mm
08:45 AM 68.7°F20.4°C 66.6°F19.2°C 93% 4.0 mph WSW6.4 kmh WSW 5.0 mph8.0 kmh 30.11 in1019.6 mb 0.00 in0.0 mm 0.00 in0.0 mm 0.00 in0.0 mm
09:00 AM 69.5°F20.8°C 67.4°F19.7°C 93% 3.0 mph WSW4.8 kmh WSW 5.0 mph8.0 kmh 30.11 in1019.6 mb 0.00 in0.0 mm 0.00 in0.0 mm 0.00 in0.0 mm
09:15 AM 70.1°F21.2°C 67.7°F19.8°C 92% 6.0 mph WSW9.7 kmh WSW 7.0 mph11.3 kmh 30.11 in1019.6 mb 0.00 in0.0 mm 0.00 in0.0 mm 0.00 in0.0 mm
09:30 AM 70.4°F21.3°C 67.3°F19.6°C 90% 3.0 mph WSW4.8 kmh WSW 6.0 mph9.7 kmh 30.10 in1019.3 mb 0.00 in0.0 mm 0.00 in0.0 mm 0.00 in0.0 mm
09:45 AM 70.8°F21.6°C 67.7°F19.8°C 90% 4.0 mph WSW6.4 kmh WSW 5.0 mph8.0 kmh 30.11 in1019.6 mb 0.00 in0.0 mm 0.00 in0.0 mm 0.00 in0.0 mm
10:00 AM 71.7°F22.1°C 68.6°F20.3°C 90% 4.0 mph SW6.4 kmh SW 5.0 mph8.0 kmh 30.10 in1019.3 mb 0.00 in0.0 mm 0.00 in0.0 mm 0.00 in0.0 mm
10:15 AM 72.1°F22.3°C 69.3°F20.7°C 91% 1.0 mph SW1.6 kmh SW 6.0 mph9.7 kmh 30.10 in1019.3 mb 0.00 in0.0 mm 0.00 in0.0 mm 0.00 in0.0 mm
10:30 AM 72.6°F22.6°C 69.8°F21.0°C 91% 2.0 mph SW3.2 kmh SW 4.0 mph6.4 kmh 30.09 in1019.0 mb 0.00 in0.0 mm 0.00 in0.0 mm 0.00 in0.0 mm
10:45 AM 73.5°F23.1°C 70.1°F21.2°C 89% 4.0 mph SW6.4 kmh SW 4.0 mph6.4 kmh 30.09 in1019.0 mb 0.00 in0.0 mm 0.00 in0.0 mm 0.00 in0.0 mm
11:00 AM 74.0°F23.3°C 70.6°F21.4°C 89% 4.0 mph S6.4 kmh S 5.0 mph8.0 kmh 30.08 in1018.6 mb 0.00 in0.0 mm 0.00 in0.0 mm 0.00 in0.0 mm
11:15 AM 74.3°F23.5°C 71.2°F21.8°C 90% 3.0 mph S4.8 kmh S 5.0 mph8.0 kmh 30.08 in1018.6 mb 0.00 in0.0 mm 0.00 in0.0 mm 0.00 in0.0 mm
11:30 AM 74.9°F23.8°C 71.8°F22.1°C 90% 4.0 mph S6.4 kmh S 5.0 mph8.0 kmh 30.08 in1018.6 mb 0.00 in0.0 mm 0.00 in0.0 mm 0.00 in0.0 mm
11:45 AM 74.4°F23.6°C 71.3°F21.8°C 90% 5.0 mph S8.0 kmh S 6.0 mph9.7 kmh 30.07 in1018.3 mb 0.00 in0.0 mm 0.00 in0.0 mm 0.00 in0.0 mm
12:00 PM 74.9°F23.8°C 72.1°F22.3°C 91% 4.0 mph SE6.4 kmh SE 7.0 mph11.3 kmh 30.07 in1018.3 mb 0.00 in0.0 mm 0.00 in0.0 mm 0.00 in0.0 mm
12:15 PM 74.3°F23.5°C 71.8°F22.1°C 92% 7.0 mph SSE11.3 kmh SSE 9.0 mph14.5 kmh 30.06 in1017.9 mb 0.00 in0.0 mm 0.00 in0.0 mm 0.00 in0.0 mm
12:30 PM 74.0°F23.3°C 71.9°F22.2°C 93% 5.0 mph SSE8.0 kmh SSE 8.0 mph12.9 kmh 30.06 in1017.9 mb 0.00 in0.0 mm 0.00 in0.0 mm 0.00 in0.0 mm
12:45 PM 74.3°F23.5°C 72.2°F22.3°C 93% 3.0 mph SSE4.8 kmh SSE 7.0 mph11.3 kmh 30.06 in1017.9 mb 0.00 in0.0 mm 0.00 in0.0 mm 0.00 in0.0 mm
01:00 PM 74.4°F23.6°C 71.9°F22.2°C 92% 5.0 mph S8.0 kmh S 7.0 mph11.3 kmh 30.05 in1017.6 mb 0.00 in0.0 mm 0.00 in0.0 mm 0.00 in0.0 mm
01:15 PM 74.5°F23.6°C 72.0°F22.2°C 92% 5.0 mph SSE8.0 kmh SSE 8.0 mph12.9 kmh 30.05 in1017.6 mb 0.00 in0.0 mm 0.00 in0.0 mm 0.00 in0.0 mm
01:30 PM 73.9°F23.3°C 71.8°F22.1°C 93% 7.0 mph S11.3 kmh S 13.0 mph20.9 kmh 30.04 in1017.3 mb 0.00 in0.0 mm 0.00 in0.0 mm 0.00 in0.0 mm
01:45 PM 74.0°F23.3°C 72.2°F22.3°C 94% 10.0 mph S16.1 kmh S 13.0 mph20.9 kmh 30.03 in1016.9 mb 0.00 in0.0 mm 0.00 in0.0 mm 0.00 in0.0 mm
02:00 PM 74.1°F23.4°C 72.0°F22.2°C 93% 7.0 mph SSE11.3 kmh SSE 14.0 mph22.5 kmh 30.03 in1016.9 mb 0.00 in0.0 mm 0.00 in0.0 mm 0.00 in0.0 mm
02:15 PM 74.5°F23.6°C 72.4°F22.4°C 93% 8.0 mph S12.9 kmh S 12.0 mph19.3 kmh 30.03 in1016.9 mb 0.00 in0.0 mm 0.00 in0.0 mm 0.00 in0.0 mm
02:30 PM 75.0°F23.9°C 72.5°F22.5°C 92% 10.0 mph S16.1 kmh S 12.0 mph19.3 kmh 30.02 in1016.6 mb 0.00 in0.0 mm 0.00 in0.0 mm 0.00 in0.0 mm
02:45 PM 75.1°F23.9°C 72.0°F22.2°C 90% 10.0 mph S16.1 kmh S 16.0 mph25.7 kmh 30.01 in1016.3 mb 0.00 in0.0 mm 0.00 in0.0 mm 0.00 in0.0 mm
03:00 PM 75.4°F24.1°C 72.3°F22.4°C 90% 7.0 mph S11.3 kmh S 13.0 mph20.9 kmh 30.00 in1015.9 mb 0.00 in0.0 mm 0.00 in0.0 mm 0.00 in0.0 mm
03:15 PM 75.3°F24.1°C 71.8°F22.1°C 89% 10.0 mph S16.1 kmh S 13.0 mph20.9 kmh 29.99 in1015.6 mb 0.00 in0.0 mm 0.00 in0.0 mm 0.00 in0.0 mm
03:30 PM 75.2°F24.0°C 72.4°F22.4°C 91% 10.0 mph S16.1 kmh S 13.0 mph20.9 kmh 29.98 in1015.2 mb 0.00 in0.0 mm 0.00 in0.0 mm 0.00 in0.0 mm
03:45 PM 75.3°F24.1°C 72.5°F22.5°C 91% 16.0 mph S25.7 kmh S 16.0 mph25.7 kmh 29.98 in1015.2 mb 0.00 in0.0 mm 0.00 in0.0 mm 0.00 in0.0 mm
04:00 PM 75.4°F24.1°C 72.6°F22.6°C 91% 9.0 mph S14.5 kmh S 15.0 mph24.1 kmh 29.98 in1015.2 mb 0.00 in0.0 mm 0.00 in0.0 mm 0.00 in0.0 mm
04:15 PM 75.3°F24.1°C 72.5°F22.5°C 91% 10.0 mph S16.1 kmh S 15.0 mph24.1 kmh 29.98 in1015.2 mb 0.00 in0.0 mm 0.00 in0.0 mm 0.00 in0.0 mm
04:30 PM 75.4°F24.1°C 72.6°F22.6°C 91% 11.0 mph SSE17.7 kmh SSE 13.0 mph20.9 kmh 29.98 in1015.2 mb 0.00 in0.0 mm 0.00 in0.0 mm 0.00 in0.0 mm
04:45 PM 75.6°F24.2°C 72.8°F22.7°C 91% 9.0 mph S14.5 kmh S 13.0 mph20.9 kmh 29.97 in1014.9 mb 0.00 in0.0 mm 0.00 in0.0 mm 0.00 in0.0 mm
05:00 PM 75.6°F24.2°C 72.8°F22.7°C 91% 7.0 mph S11.3 kmh S 13.0 mph20.9 kmh 29.97 in1014.9 mb 0.00 in0.0 mm 0.00 in0.0 mm 0.00 in0.0 mm
05:15 PM 75.7°F24.3°C 72.9°F22.7°C 91% 10.0 mph S16.1 kmh S 11.0 mph17.7 kmh 29.97 in1014.9 mb 0.00 in0.0 mm 0.00 in0.0 mm 0.00 in0.0 mm
05:30 PM 75.6°F24.2°C 72.8°F22.7°C 91% 8.0 mph S12.9 kmh S 10.0 mph16.1 kmh 29.97 in1014.9 mb 0.00 in0.0 mm 0.00 in0.0 mm 0.00 in0.0 mm
05:45 PM 75.6°F24.2°C 72.8°F22.7°C 91% 8.0 mph SW12.9 kmh SW 10.0 mph16.1 kmh 29.97 in1014.9 mb 0.02 in0.5 mm 0.08 in2.0 mm 0.02 in0.5 mm
06:00 PM 74.5°F23.6°C 70.0°F21.1°C 86% 6.0 mph SE9.7 kmh SE 10.0 mph16.1 kmh 29.96 in1014.6 mb 0.14 in3.6 mm 0.16 in4.1 mm 0.14 in3.6 mm
06:15 PM 75.1°F23.9°C 72.6°F22.6°C 92% 2.0 mph SSW3.2 kmh SSW 4.0 mph6.4 kmh 29.97 in1014.9 mb 0.14 in3.6 mm 0.00 in0.0 mm 0.14 in3.6 mm
06:30 PM 75.5°F24.2°C 73.0°F22.8°C 92% 3.0 mph WSW4.8 kmh WSW 5.0 mph8.0 kmh 29.97 in1014.9 mb 0.14 in3.6 mm 0.00 in0.0 mm 0.14 in3.6 mm
06:45 PM 75.1°F23.9°C 69.9°F21.1°C 84% Calm Calm 8.0 mph12.9 kmh 29.98 in1015.2 mb 0.14 in3.6 mm 0.00 in0.0 mm 0.14 in3.6 mm
07:00 PM 74.6°F23.7°C 70.1°F21.2°C 86% Calm Calm -- 29.99 in1015.6 mb 0.14 in3.6 mm 0.00 in0.0 mm 0.14 in3.6 mm
07:15 PM 74.1°F23.4°C 70.7°F21.5°C 89% Calm Calm -- 29.98 in1015.2 mb 0.00 in0.0 mm 0.00 in0.0 mm 0.14 in3.6 mm
07:30 PM 73.6°F23.1°C 70.5°F21.4°C 90% Calm Calm -- 29.98 in1015.2 mb 0.00 in0.0 mm 0.00 in0.0 mm 0.14 in3.6 mm
07:45 PM 72.5°F22.5°C 68.8°F20.4°C 88% 1.0 mph ENE1.6 kmh ENE 2.0 mph3.2 kmh 29.97 in1014.9 mb 0.00 in0.0 mm 0.00 in0.0 mm 0.14 in3.6 mm
08:00 PM 71.7°F22.1°C 68.0°F20.0°C 88% 2.0 mph E3.2 kmh E 3.0 mph4.8 kmh 29.98 in1015.2 mb 0.00 in0.0 mm 0.00 in0.0 mm 0.14 in3.6 mm
08:30 PM 70.9°F21.6°C 68.5°F20.3°C 92% 3.0 mph ESE4.8 kmh ESE 5.0 mph8.0 kmh 29.98 in1015.2 mb 0.00 in0.0 mm 0.00 in0.0 mm 0.14 in3.6 mm
08:45 PM 71.1°F21.7°C 68.7°F20.4°C 92% Calm Calm 9.0 mph14.5 kmh 29.99 in1015.6 mb 0.02 in0.5 mm 0.08 in2.0 mm 0.16 in4.1 mm
09:00 PM 70.4°F21.3°C 68.3°F20.2°C 93% 3.0 mph E4.8 kmh E 6.0 mph9.7 kmh 29.99 in1015.6 mb 0.03 in0.8 mm 0.01 in0.3 mm 0.17 in4.3 mm
09:15 PM 70.4°F21.3°C 68.6°F20.3°C 94% Calm Calm 3.0 mph4.8 kmh 30.01 in1016.3 mb 0.03 in0.8 mm 0.00 in0.0 mm 0.17 in4.3 mm
09:30 PM 69.8°F21.0°C 68.3°F20.2°C 95% 6.0 mph SSE9.7 kmh SSE 7.0 mph11.3 kmh 30.00 in1015.9 mb 0.27 in6.9 mm 0.96 in24.4 mm 0.41 in10.4 mm
09:45 PM 69.6°F20.9°C 68.4°F20.2°C 96% 6.0 mph SE9.7 kmh SE 9.0 mph14.5 kmh 29.99 in1015.6 mb 0.40 in10.2 mm 0.52 in13.2 mm 0.54 in13.7 mm
10:00 PM 69.7°F20.9°C 68.2°F20.1°C 95% Calm Calm 7.0 mph11.3 kmh 30.00 in1015.9 mb 0.40 in10.2 mm 0.00 in0.0 mm 0.54 in13.7 mm
10:15 PM 69.0°F20.6°C 67.5°F19.7°C 95% Calm Calm -- 29.99 in1015.6 mb 0.37 in9.4 mm 0.00 in0.0 mm 0.54 in13.7 mm
10:30 PM 68.7°F20.4°C 67.2°F19.6°C 95% 1.0 mph ESE1.6 kmh ESE 1.0 mph1.6 kmh 29.99 in1015.6 mb 0.37 in9.4 mm 0.00 in0.0 mm 0.54 in13.7 mm
10:45 PM 68.4°F20.2°C 67.2°F19.6°C 96% Calm Calm 1.0 mph1.6 kmh 29.99 in1015.6 mb 0.13 in3.3 mm 0.00 in0.0 mm 0.54 in13.7 mm
11:00 PM 68.4°F20.2°C 67.5°F19.7°C 97% Calm Calm 1.0 mph1.6 kmh 29.99 in1015.6 mb 0.13 in3.3 mm 0.00 in0.0 mm 0.54 in13.7 mm
11:15 PM 68.6°F20.3°C 67.7°F19.8°C 97% 2.0 mph NNW3.2 kmh NNW 3.0 mph4.8 kmh 30.00 in1015.9 mb 0.00 in0.0 mm 0.00 in0.0 mm 0.54 in13.7 mm
11:30 PM 68.3°F20.2°C 67.4°F19.7°C 97% Calm Calm 1.0 mph1.6 kmh 29.99 in1015.6 mb 0.00 in0.0 mm 0.00 in0.0 mm 0.54 in13.7 mm
11:45 PM 68.3°F20.2°C 67.4°F19.7°C 97% Calm Calm 1.0 mph1.6 kmh 29.99 in1015.6 mb 0.00 in0.0 mm 0.00 in0.0 mm 0.54 in13.7 mm